createdAt,value
2023-02-19T00:01:54.305Z,53.19
2023-02-19T00:04:23.088Z,53.11
2023-02-19T00:06:50.888Z,52.62
2023-02-19T00:09:19.612Z,52.00
2023-02-19T00:11:48.138Z,51.98
2023-02-19T00:14:17.828Z,51.83
2023-02-19T00:16:46.283Z,51.65
2023-02-19T00:19:16.514Z,51.06
2023-02-19T00:21:44.849Z,51.96
2023-02-19T00:24:13.568Z,52.11
2023-02-19T00:26:42.257Z,51.99
2023-02-19T00:29:13.913Z,52.23
2023-02-19T00:31:42.683Z,51.80
2023-02-19T00:34:11.218Z,51.83
2023-02-19T00:36:39.893Z,52.04
2023-02-19T00:39:08.269Z,51.90
2023-02-19T00:41:36.413Z,52.33
2023-02-19T00:44:06.588Z,52.67
2023-02-19T00:46:39.792Z,52.89
2023-02-19T00:49:09.620Z,53.31
2023-02-19T00:51:38.642Z,52.89
2023-02-19T00:54:06.510Z,52.82
2023-02-19T00:56:34.915Z,52.80
2023-02-19T00:59:02.992Z,53.71
2023-02-19T01:01:31.829Z,53.64
2023-02-19T01:03:59.547Z,53.52
2023-02-19T01:06:30.579Z,53.04
2023-02-19T01:08:58.724Z,52.59
2023-02-19T01:11:27.679Z,53.29
2023-02-19T01:13:59.648Z,52.95
2023-02-19T01:16:28.035Z,52.58
2023-02-19T01:18:57.212Z,52.50
2023-02-19T01:21:26.503Z,52.60
2023-02-19T01:23:54.366Z,52.15
2023-02-19T01:26:24.086Z,52.25
2023-02-19T01:28:52.238Z,52.16
2023-02-19T01:31:22.184Z,51.71
2023-02-19T01:33:55.178Z,51.56
2023-02-19T01:36:23.413Z,51.81
2023-02-19T01:38:51.336Z,51.46
2023-02-19T01:41:21.685Z,51.17
2023-02-19T01:44:10.037Z,51.07
2023-02-19T01:46:39.779Z,51.11
2023-02-19T01:49:13.255Z,51.51
2023-02-19T01:52:02.203Z,51.40
2023-02-19T01:54:33.479Z,51.28
2023-02-19T01:57:02.394Z,51.14
2023-02-19T01:59:31.712Z,50.41
2023-02-19T02:01:59.889Z,50.71
2023-02-19T02:04:27.670Z,50.71
2023-02-19T02:06:58.848Z,50.75
2023-02-19T02:09:46.736Z,50.44
2023-02-19T02:12:14.664Z,50.43
2023-02-19T02:14:44.904Z,50.48
2023-02-19T02:17:40.941Z,50.46
2023-02-19T02:20:08.645Z,49.82
2023-02-19T02:22:50.358Z,50.16
2023-02-19T02:25:40.041Z,50.15
2023-02-19T02:28:45.321Z,49.32
2023-02-19T02:31:17.673Z,49.45
2023-02-19T02:34:06.787Z,49.89
2023-02-19T02:36:37.653Z,50.04
2023-02-19T02:39:07.735Z,49.50
2023-02-19T02:41:44.965Z,49.64
2023-02-19T02:44:13.885Z,49.49
2023-02-19T02:46:42.896Z,50.00
2023-02-19T02:49:17.337Z,49.46
2023-02-19T02:51:48.293Z,49.23
2023-02-19T02:54:57.746Z,49.62
2023-02-19T02:57:25.887Z,49.61
2023-02-19T02:59:56.526Z,49.50
2023-02-19T03:02:27.269Z,49.57
2023-02-19T03:05:34.317Z,49.79
2023-02-19T03:08:17.182Z,49.22
2023-02-19T03:10:53.453Z,50.01
2023-02-19T03:13:49.942Z,49.95
2023-02-19T03:16:41.086Z,49.55
2023-02-19T03:19:20.480Z,49.79
2023-02-19T03:21:59.732Z,49.66
2023-02-19T03:24:52.008Z,48.93
2023-02-19T03:27:20.438Z,48.76
2023-02-19T03:29:52.788Z,49.03
2023-02-19T03:32:36.423Z,48.28
2023-02-19T03:35:14.925Z,47.37
2023-02-19T03:38:10.566Z,46.41
2023-02-19T03:40:51.488Z,46.05
2023-02-19T03:43:54.644Z,45.04
2023-02-19T03:46:47.437Z,45.06
2023-02-19T03:49:45.509Z,44.68
2023-02-19T03:52:46.681Z,44.71
2023-02-19T03:55:25.495Z,44.72
2023-02-19T03:58:12.259Z,44.43
2023-02-19T04:00:41.909Z,43.61
2023-02-19T04:04:00.934Z,44.00
2023-02-19T04:06:30.901Z,43.95
2023-02-19T04:09:01.692Z,43.86
2023-02-19T04:11:31.126Z,44.14
2023-02-19T04:14:11.134Z,44.52
2023-02-19T04:16:42.527Z,43.85
2023-02-19T04:19:12.361Z,43.87
2023-02-19T04:21:40.715Z,43.53
2023-02-19T04:24:12.142Z,43.58
2023-02-19T04:26:39.829Z,43.05
2023-02-19T04:29:07.566Z,43.37
2023-02-19T04:31:36.303Z,42.94
2023-02-19T04:34:04.623Z,42.87
2023-02-19T04:36:33.155Z,43.01
2023-02-19T04:39:01.421Z,43.11
2023-02-19T04:41:29.706Z,43.29
2023-02-19T04:43:58.114Z,42.86
2023-02-19T04:46:25.972Z,42.69
2023-02-19T04:48:54.122Z,42.97
2023-02-19T04:51:22.251Z,42.65
2023-02-19T04:53:50.340Z,42.34
2023-02-19T04:56:18.174Z,42.56
2023-02-19T04:58:46.070Z,42.63
2023-02-19T05:01:15.053Z,42.12
2023-02-19T05:03:43.251Z,41.84
2023-02-19T05:06:13.016Z,41.49
2023-02-19T05:08:41.456Z,41.63
2023-02-19T05:11:11.216Z,41.59
2023-02-19T05:13:39.677Z,42.02
2023-02-19T05:16:09.036Z,41.90
2023-02-19T05:18:36.823Z,42.12
2023-02-19T05:21:05.146Z,42.05
2023-02-19T05:23:33.162Z,41.65
2023-02-19T05:26:05.898Z,41.44
2023-02-19T05:28:33.969Z,41.04
2023-02-19T05:31:05.646Z,40.97
2023-02-19T05:33:33.809Z,41.10
2023-02-19T05:36:05.741Z,40.38
2023-02-19T05:38:34.177Z,40.33
2023-02-19T05:41:19.778Z,40.59
2023-02-19T05:43:48.970Z,40.47
2023-02-19T05:46:20.191Z,40.68
2023-02-19T05:48:48.962Z,40.98
2023-02-19T05:51:18.315Z,41.01
2023-02-19T05:53:46.476Z,41.42
2023-02-19T05:56:36.531Z,41.51
2023-02-19T05:59:24.066Z,42.05
2023-02-19T06:01:52.488Z,42.10
2023-02-19T06:04:20.814Z,41.81
2023-02-19T06:06:48.794Z,42.08
2023-02-19T06:09:16.856Z,41.60
2023-02-19T06:11:44.935Z,41.57
2023-02-19T06:14:14.199Z,41.53
2023-02-19T06:16:42.292Z,41.28
2023-02-19T06:19:10.436Z,41.61
2023-02-19T06:21:38.790Z,41.24
2023-02-19T06:24:08.562Z,41.00
2023-02-19T06:26:36.973Z,40.33
2023-02-19T06:29:04.884Z,40.09
2023-02-19T06:31:34.658Z,39.69
2023-02-19T06:34:05.388Z,38.42
2023-02-19T06:36:33.320Z,38.11
2023-02-19T06:39:01.594Z,38.18
2023-02-19T06:41:29.434Z,38.45
2023-02-19T06:44:00.283Z,38.42
2023-02-19T06:46:28.309Z,38.15
2023-02-19T06:48:57.122Z,37.89
2023-02-19T06:51:27.826Z,37.62
2023-02-19T06:53:55.826Z,37.67
2023-02-19T06:56:23.875Z,37.41
2023-02-19T06:58:52.629Z,38.26
2023-02-19T07:01:21.408Z,38.47
2023-02-19T07:03:49.427Z,38.86
2023-02-19T07:06:17.274Z,39.53
2023-02-19T07:08:45.571Z,39.91
2023-02-19T07:11:13.773Z,40.67
2023-02-19T07:13:41.585Z,40.34
2023-02-19T07:16:10.499Z,40.57
2023-02-19T07:18:38.674Z,40.57
2023-02-19T07:21:11.511Z,40.96
2023-02-19T07:23:39.719Z,41.25
2023-02-19T07:26:14.768Z,41.65
2023-02-19T07:28:46.795Z,41.92
2023-02-19T07:31:15.385Z,42.19
2023-02-19T07:33:47.236Z,41.96
2023-02-19T07:36:15.780Z,42.02
2023-02-19T07:38:43.824Z,41.79
2023-02-19T07:41:12.059Z,41.45
2023-02-19T07:43:40.186Z,41.95
2023-02-19T07:46:10.343Z,42.62
2023-02-19T07:48:38.774Z,42.53
2023-02-19T07:51:08.325Z,43.03
2023-02-19T07:53:36.698Z,43.37
2023-02-19T07:56:06.094Z,43.66
2023-02-19T07:58:34.090Z,43.53
2023-02-19T08:01:40.952Z,43.44
2023-02-19T08:04:12.833Z,43.52
2023-02-19T08:06:40.983Z,43.82
2023-02-19T08:09:08.901Z,43.75
2023-02-19T08:11:55.377Z,43.89
2023-02-19T08:14:27.230Z,44.05
2023-02-19T08:16:55.681Z,44.16
2023-02-19T08:19:23.603Z,44.73
2023-02-19T08:21:51.952Z,44.95
2023-02-19T08:24:20.057Z,44.94
2023-02-19T08:26:48.239Z,44.51
2023-02-19T08:29:15.947Z,44.00
2023-02-19T08:31:44.030Z,44.24
2023-02-19T08:34:12.154Z,44.13
2023-02-19T08:36:40.313Z,44.30
2023-02-19T08:39:08.561Z,44.13
2023-02-19T08:41:37.034Z,43.43
2023-02-19T08:44:04.974Z,42.52
2023-02-19T08:46:34.415Z,42.10
2023-02-19T08:49:02.907Z,42.11
2023-02-19T08:51:30.675Z,41.61
2023-02-19T08:53:58.762Z,41.21
2023-02-19T08:56:26.813Z,41.27
2023-02-19T08:58:55.574Z,41.21
2023-02-19T09:01:24.260Z,40.97
2023-02-19T09:03:52.182Z,40.82
2023-02-19T09:06:20.920Z,40.70
2023-02-19T09:08:49.116Z,41.29
2023-02-19T09:11:17.330Z,40.88
2023-02-19T09:13:45.309Z,40.82
2023-02-19T09:16:13.199Z,41.19
2023-02-19T09:18:41.328Z,41.08
2023-02-19T09:21:09.996Z,40.90
2023-02-19T09:23:38.245Z,41.28
2023-02-19T09:26:09.296Z,41.16
2023-02-19T09:28:37.933Z,41.58
2023-02-19T09:31:07.490Z,41.93
2023-02-19T09:33:35.678Z,42.33
2023-02-19T09:36:03.994Z,42.63
2023-02-19T09:38:32.197Z,43.06
2023-02-19T09:41:00.176Z,42.96
2023-02-19T09:43:28.830Z,43.64
2023-02-19T09:46:03.650Z,43.68
2023-02-19T09:48:31.484Z,43.34
2023-02-19T09:50:59.670Z,43.65
2023-02-19T09:53:30.154Z,43.71
2023-02-19T09:55:57.990Z,43.83
2023-02-19T09:58:27.532Z,43.49
2023-02-19T10:00:56.111Z,43.96
2023-02-19T10:03:31.521Z,44.05
2023-02-19T10:06:05.140Z,43.87
2023-02-19T10:08:35.278Z,43.67
2023-02-19T10:11:04.170Z,43.80
2023-02-19T10:14:10.826Z,43.84
2023-02-19T10:16:42.868Z,44.13
2023-02-19T10:19:18.887Z,44.43
2023-02-19T10:21:46.799Z,44.15
2023-02-19T10:24:21.471Z,44.87
2023-02-19T10:26:50.639Z,45.19
2023-02-19T10:29:20.058Z,45.08
2023-02-19T10:31:48.490Z,45.22
2023-02-19T10:34:22.614Z,45.26
2023-02-19T10:36:51.553Z,45.59
2023-02-19T10:39:45.279Z,45.54
2023-02-19T10:42:21.430Z,45.76
2023-02-19T10:44:59.257Z,45.73
2023-02-19T10:47:27.724Z,46.28
2023-02-19T10:49:57.517Z,46.15
2023-02-19T10:52:27.070Z,46.40
2023-02-19T10:55:16.533Z,46.47
2023-02-19T10:57:44.464Z,46.69
2023-02-19T11:00:30.847Z,47.05
2023-02-19T11:03:15.303Z,47.73
2023-02-19T11:06:03.187Z,48.04
2023-02-19T11:08:31.600Z,47.80
2023-02-19T11:10:59.727Z,48.24
2023-02-19T11:13:33.389Z,48.70
2023-02-19T11:16:01.566Z,48.80
2023-02-19T11:18:31.662Z,49.19
2023-02-19T11:21:01.114Z,49.15
2023-02-19T11:23:50.268Z,48.89
2023-02-19T11:26:23.671Z,49.07
2023-02-19T11:29:02.033Z,48.86
2023-02-19T11:31:33.859Z,49.75
2023-02-19T11:34:02.455Z,49.35
2023-02-19T11:36:39.717Z,49.51
2023-02-19T11:39:10.776Z,49.35
2023-02-19T11:42:03.272Z,49.93
2023-02-19T11:44:37.154Z,49.98
2023-02-19T11:47:26.948Z,49.95
2023-02-19T11:50:09.460Z,50.46
2023-02-19T11:52:43.408Z,50.50
2023-02-19T11:55:18.514Z,50.81
2023-02-19T11:58:03.607Z,50.72
2023-02-19T12:00:31.772Z,50.80
2023-02-19T12:03:21.828Z,50.72
2023-02-19T12:06:04.990Z,50.78
2023-02-19T12:08:42.154Z,51.02
2023-02-19T12:11:19.144Z,50.60
2023-02-19T12:14:19.035Z,51.12
2023-02-19T12:17:02.621Z,51.03
2023-02-19T12:19:33.465Z,50.56
2023-02-19T12:22:41.982Z,50.91
2023-02-19T12:25:29.336Z,50.82
2023-02-19T12:28:10.190Z,50.48
2023-02-19T12:31:00.454Z,50.54
2023-02-19T12:33:46.863Z,50.62
2023-02-19T12:36:59.897Z,50.40
2023-02-19T12:39:40.084Z,50.63
2023-02-19T12:42:11.979Z,50.40
2023-02-19T12:44:47.516Z,50.35
2023-02-19T12:47:21.415Z,50.23
2023-02-19T12:50:17.462Z,50.13
2023-02-19T12:52:47.276Z,50.10
2023-02-19T12:55:36.998Z,50.34
2023-02-19T12:58:06.581Z,50.41
2023-02-19T13:00:45.817Z,50.22
2023-02-19T13:03:23.602Z,50.19
2023-02-19T13:06:22.409Z,50.56
2023-02-19T13:09:19.354Z,50.75
2023-02-19T13:12:06.235Z,50.70
2023-02-19T13:14:43.133Z,50.89
2023-02-19T13:17:25.152Z,51.02
2023-02-19T13:19:58.058Z,51.22
2023-02-19T13:23:01.640Z,51.58
2023-02-19T13:25:56.671Z,51.12
2023-02-19T13:28:43.304Z,50.78
2023-02-19T13:31:41.217Z,50.80
2023-02-19T13:34:33.613Z,50.85
2023-02-19T13:37:01.791Z,50.44
2023-02-19T13:39:31.135Z,50.57
2023-02-19T13:42:02.192Z,50.44
2023-02-19T13:44:34.265Z,50.59
2023-02-19T13:47:06.834Z,50.35
2023-02-19T13:49:35.034Z,50.47
2023-02-19T13:52:24.908Z,50.35
2023-02-19T13:54:53.505Z,50.23
2023-02-19T13:57:24.916Z,50.01
2023-02-19T14:00:02.083Z,49.76
2023-02-19T14:02:35.946Z,49.83
2023-02-19T14:05:11.575Z,49.71
2023-02-19T14:07:51.369Z,49.73
2023-02-19T14:10:58.413Z,49.78
2023-02-19T14:13:52.437Z,49.67
2023-02-19T14:16:50.133Z,49.67
2023-02-19T14:19:43.353Z,49.91
2023-02-19T14:22:48.303Z,49.65
2023-02-19T14:25:31.501Z,49.76
2023-02-19T14:28:08.140Z,50.11
2023-02-19T14:30:52.899Z,49.51
2023-02-19T14:33:26.164Z,49.94
2023-02-19T14:36:22.981Z,49.76
2023-02-19T14:39:28.316Z,49.51
2023-02-19T14:42:16.863Z,49.97
2023-02-19T14:44:53.263Z,49.76
2023-02-19T14:47:22.551Z,49.47
2023-02-19T14:49:51.894Z,49.78
2023-02-19T14:52:25.557Z,49.57
2023-02-19T14:55:02.275Z,49.69
2023-02-19T14:57:34.521Z,49.63
2023-02-19T15:00:20.320Z,49.38
2023-02-19T15:02:48.537Z,49.54
2023-02-19T15:05:23.652Z,48.83
2023-02-19T15:07:52.037Z,49.09
2023-02-19T15:10:20.251Z,49.10
2023-02-19T15:12:52.770Z,48.80
2023-02-19T15:15:26.631Z,49.06
2023-02-19T15:17:54.835Z,48.77
2023-02-19T15:20:27.978Z,48.86
2023-02-19T15:22:56.723Z,48.54
2023-02-19T15:25:26.779Z,48.49
2023-02-19T15:27:54.987Z,48.10
2023-02-19T15:30:29.755Z,48.27
2023-02-19T15:32:59.705Z,48.33
2023-02-19T15:35:28.842Z,48.09
2023-02-19T15:37:56.821Z,48.03
2023-02-19T15:40:33.379Z,48.26
2023-02-19T15:43:01.603Z,48.49
2023-02-19T15:45:29.702Z,48.37
2023-02-19T15:48:08.874Z,48.35
2023-02-19T15:50:40.265Z,48.42
2023-02-19T15:53:10.637Z,48.48
2023-02-19T15:55:48.787Z,48.74
2023-02-19T15:58:28.874Z,48.57
2023-02-19T16:01:00.107Z,48.53
2023-02-19T16:03:28.458Z,48.53
2023-02-19T16:06:15.681Z,48.54
2023-02-19T16:08:48.284Z,48.62
2023-02-19T16:11:25.332Z,48.53
2023-02-19T16:13:53.932Z,48.25
2023-02-19T16:16:27.265Z,48.64
2023-02-19T16:18:55.347Z,48.25
2023-02-19T16:21:26.269Z,48.42
2023-02-19T16:24:15.132Z,48.19
2023-02-19T16:26:43.757Z,48.17
2023-02-19T16:29:28.780Z,48.14
2023-02-19T16:31:59.093Z,48.22
2023-02-19T16:34:35.007Z,48.33
2023-02-19T16:37:03.449Z,48.34
2023-02-19T16:39:31.292Z,48.42
2023-02-19T16:42:02.663Z,48.37
2023-02-19T16:44:31.587Z,48.30
2023-02-19T16:47:04.384Z,48.77
2023-02-19T16:49:31.918Z,48.71
2023-02-19T16:51:59.937Z,48.59
2023-02-19T16:54:28.527Z,48.59
2023-02-19T16:56:56.853Z,49.26
2023-02-19T16:59:25.071Z,49.07
2023-02-19T17:01:53.227Z,49.12
2023-02-19T17:04:21.269Z,49.34
2023-02-19T17:06:49.054Z,49.85
2023-02-19T17:09:16.945Z,50.12
2023-02-19T17:11:44.729Z,50.32
2023-02-19T17:14:12.434Z,50.74
2023-02-19T17:16:40.866Z,50.90
2023-02-19T17:19:17.455Z,51.18
2023-02-19T17:21:45.833Z,51.52
2023-02-19T17:24:13.932Z,51.42
2023-02-19T17:26:41.840Z,51.33
2023-02-19T17:29:14.339Z,51.67
2023-02-19T17:31:42.564Z,51.91
2023-02-19T17:34:10.822Z,52.14
2023-02-19T17:36:38.709Z,52.09
2023-02-19T17:39:14.981Z,52.30
2023-02-19T17:41:42.756Z,52.81
2023-02-19T17:44:11.178Z,53.18
2023-02-19T17:46:39.499Z,53.60
2023-02-19T17:49:07.884Z,53.65
2023-02-19T17:51:36.066Z,53.58
2023-02-19T17:54:04.554Z,53.20
2023-02-19T17:56:33.270Z,53.88
2023-02-19T17:59:01.004Z,54.11
2023-02-19T18:01:28.945Z,54.45
2023-02-19T18:03:56.811Z,54.06
2023-02-19T18:06:24.585Z,53.74
2023-02-19T18:08:53.606Z,53.48
2023-02-19T18:11:23.672Z,53.54
2023-02-19T18:13:51.989Z,53.77
2023-02-19T18:16:20.387Z,53.59
2023-02-19T18:18:48.226Z,53.27
2023-02-19T18:21:16.648Z,53.42
2023-02-19T18:23:46.416Z,53.80
2023-02-19T18:26:19.224Z,54.20
2023-02-19T18:28:47.236Z,54.55
2023-02-19T18:31:15.644Z,54.37
2023-02-19T18:33:43.962Z,54.25
2023-02-19T18:36:13.131Z,54.57
2023-02-19T18:38:41.164Z,54.38
2023-02-19T18:41:12.937Z,54.27
2023-02-19T18:43:42.505Z,54.35
2023-02-19T18:46:10.493Z,54.32
2023-02-19T18:48:38.436Z,54.49
2023-02-19T18:51:09.789Z,54.97
2023-02-19T18:53:38.470Z,54.39
2023-02-19T18:56:09.322Z,55.08
2023-02-19T18:58:37.399Z,55.21
2023-02-19T19:01:05.739Z,55.42
2023-02-19T19:03:33.596Z,55.37
2023-02-19T19:06:03.718Z,55.28
2023-02-19T19:08:31.915Z,55.37
2023-02-19T19:10:59.860Z,55.64
2023-02-19T19:13:27.797Z,55.42
2023-02-19T19:15:55.547Z,54.97
2023-02-19T19:18:23.903Z,55.37
2023-02-19T19:20:51.935Z,55.40
2023-02-19T19:23:19.729Z,55.55
2023-02-19T19:25:47.781Z,55.51
2023-02-19T19:28:15.559Z,55.74
2023-02-19T19:30:43.775Z,55.33
2023-02-19T19:33:12.110Z,55.42
2023-02-19T19:35:41.854Z,55.28
2023-02-19T19:38:10.482Z,55.48
2023-02-19T19:40:39.053Z,56.14
2023-02-19T19:43:06.943Z,56.70
2023-02-19T19:45:35.107Z,56.47
2023-02-19T19:48:02.865Z,56.56
2023-02-19T19:50:31.321Z,56.79
2023-02-19T19:52:59.709Z,56.16
2023-02-19T19:55:27.428Z,55.91
2023-02-19T19:57:55.168Z,56.32
2023-02-19T20:00:24.857Z,55.80
2023-02-19T20:02:53.394Z,56.37
2023-02-19T20:05:21.345Z,56.01
2023-02-19T20:07:50.368Z,55.99
2023-02-19T20:10:19.935Z,55.92
2023-02-19T20:12:48.131Z,56.10
2023-02-19T20:15:20.849Z,55.95
2023-02-19T20:17:49.350Z,55.88
2023-02-19T20:20:18.492Z,56.27
2023-02-19T20:22:46.796Z,56.06
2023-02-19T20:25:14.783Z,56.29
2023-02-19T20:27:43.125Z,56.39
2023-02-19T20:30:12.553Z,56.03
2023-02-19T20:32:40.940Z,55.72
2023-02-19T20:35:08.742Z,56.24
2023-02-19T20:37:40.279Z,55.51
2023-02-19T20:40:08.613Z,55.50
2023-02-19T20:42:36.636Z,55.08
2023-02-19T20:45:05.869Z,55.46
2023-02-19T20:47:33.632Z,56.16
2023-02-19T20:50:01.912Z,56.19
2023-02-19T20:52:30.181Z,56.42
2023-02-19T20:54:58.229Z,55.89
2023-02-19T20:57:25.931Z,55.95
2023-02-19T20:59:54.378Z,56.07
2023-02-19T21:02:24.981Z,55.64
2023-02-19T21:04:52.806Z,55.65
2023-02-19T21:07:20.773Z,55.42
2023-02-19T21:09:48.817Z,55.28
2023-02-19T21:12:17.301Z,55.22
2023-02-19T21:14:45.382Z,54.95
2023-02-19T21:17:13.465Z,54.83
2023-02-19T21:19:41.840Z,54.44
2023-02-19T21:22:09.909Z,54.56
2023-02-19T21:24:38.137Z,54.53
2023-02-19T21:27:05.839Z,54.20
2023-02-19T21:29:33.739Z,54.49
2023-02-19T21:32:02.165Z,54.51
2023-02-19T21:34:30.870Z,53.69
2023-02-19T21:37:00.417Z,54.03
2023-02-19T21:39:28.601Z,54.09
2023-02-19T21:41:58.949Z,53.71
2023-02-19T21:44:27.049Z,53.99
2023-02-19T21:46:54.840Z,54.38
2023-02-19T21:49:22.896Z,53.95
2023-02-19T21:51:50.998Z,54.06
2023-02-19T21:54:22.121Z,54.11
2023-02-19T21:56:49.928Z,54.50
2023-02-19T21:59:17.761Z,54.43
2023-02-19T22:01:46.172Z,54.75
2023-02-19T22:04:15.806Z,54.49
2023-02-19T22:06:43.727Z,54.76
2023-02-19T22:09:11.751Z,54.54
2023-02-19T22:11:39.504Z,54.93
2023-02-19T22:14:07.626Z,54.58
2023-02-19T22:16:35.327Z,54.67
2023-02-19T22:19:03.564Z,54.82
2023-02-19T22:21:33.263Z,54.53
2023-02-19T22:24:02.181Z,54.57
2023-02-19T22:26:35.235Z,54.25
2023-02-19T22:29:08.421Z,54.25
2023-02-19T22:31:36.891Z,54.63
2023-02-19T22:34:04.865Z,54.13
2023-02-19T22:36:33.980Z,54.24
2023-02-19T22:39:02.616Z,54.14
2023-02-19T22:41:31.017Z,54.05
2023-02-19T22:43:59.417Z,54.16
2023-02-19T22:46:31.043Z,53.91
2023-02-19T22:48:58.952Z,54.27
2023-02-19T22:51:26.676Z,54.00
2023-02-19T22:53:56.060Z,54.30
2023-02-19T22:56:27.759Z,54.23
2023-02-19T22:58:56.709Z,53.75
2023-02-19T23:01:24.660Z,53.64
2023-02-19T23:03:54.943Z,54.00
2023-02-19T23:06:27.810Z,53.80
2023-02-19T23:08:57.023Z,53.89
2023-02-19T23:11:30.468Z,54.45
2023-02-19T23:13:58.350Z,54.58
2023-02-19T23:16:26.522Z,54.87
2023-02-19T23:18:55.036Z,54.93
2023-02-19T23:21:23.129Z,54.67
2023-02-19T23:23:51.512Z,54.90
2023-02-19T23:26:20.222Z,54.92
2023-02-19T23:28:48.504Z,54.93
2023-02-19T23:31:16.645Z,54.89
2023-02-19T23:33:44.954Z,55.32
2023-02-19T23:36:13.313Z,54.96
2023-02-19T23:38:41.422Z,56.06
2023-02-19T23:41:12.558Z,56.61
2023-02-19T23:43:40.743Z,56.40
2023-02-19T23:46:08.865Z,56.43
2023-02-19T23:48:37.192Z,56.42
2023-02-19T23:51:05.173Z,56.14
2023-02-19T23:53:33.290Z,56.23
2023-02-19T23:56:01.006Z,56.30
2023-02-19T23:58:29.230Z,55.96
